SBRB/RBR METAR and TAF weather

Enter ICAO airport designator
Station Type Date Time Source
SBRB METAR 2019/08/23 15:00 UTC NOAA

SBRB 231500Z 17006KT CAVOK 32/21 Q1019


Station Type Date Time Source
SBRB Decoded METAR 2019/08/23 15:00 UTC NOAA

Station name not available
Aug 23, 2019 - 11:00 AM EDT / 2019.08.23 1500 UTC
Wind: from the S (170 degrees) at 7 MPH (6 KT):0
Visibility: greater than 7 mile(s):0
Temperature: 89 F (32 C)
Dew Point: 69 F (21 C)
Relative Humidity: 52%
Pressure (altimeter): 30.09 in. Hg (1019 hPa)
ob: SBRB 231500Z 17006KT CAVOK 32/21 Q1019
cycle: 15

Station Type Date Time Source
SBRB TAF 2019/08/23 12:12 UTC NOAA

TAF SBRB 230900Z 2312/2324 17005KT 7000 NSC TX35/2319Z TN29/2324Z
BECMG 2322/2324 26003KT
RMK PGU

Example: see airport list